Time;durP1;ratioP1;P1;durP2;ratioP2;P2;SDS_P1;SDS_P2;PMS_P1;PMS_P2;Temp;Humidity;BMP_temperature;BMP_pressure;BME280_temperature;BME280_humidity;BME280_pressure;Samples;Min_cycle;Max_cycle;Signal;HPM_P1;HPM_P2
2022/08/14 10:23:26;;;;;;;26.80;5.93;;;23.40;99.90;;;;;;5965651;23;20032;-90
2022/08/14 10:26:03;;;;;;;17.73;4.82;;;23.70;99.90;;;;;;4895168;29;20040;-89
2022/08/14 10:28:41;;;;;;;14.82;5.20;;;23.90;99.90;;;;;;4897313;29;20059;-86
2022/08/14 10:31:28;;;;;;;14.85;4.30;;;24.00;99.90;;;;;;4906526;29;20024;-86
2022/08/14 10:34:20;;;;;;;17.20;4.97;;;23.90;99.90;;;;;;4905350;29;20087;-89
2022/08/14 10:36:48;;;;;;;15.20;4.50;;;23.70;99.90;;;;;;4888970;29;20254;-88
2022/08/14 10:39:15;;;;;;;17.77;4.47;;;23.60;99.90;;;;;;4906334;29;20040;-89
2022/08/14 10:41:43;;;;;;;15.70;4.72;;;23.70;99.90;;;;;;4906201;29;20044;-89
2022/08/14 10:44:12;;;;;;;17.25;5.32;;;23.70;99.90;;;;;;4906009;29;20296;-86
2022/08/14 10:46:46;;;;;;;16.40;4.93;;;23.90;99.90;;;;;;4906470;29;20035;-87
2022/08/14 10:49:25;;;;;;;14.75;4.53;;;24.10;99.90;;;;;;4906125;29;20312;-87
2022/08/14 10:52:05;;;;;;;16.40;4.72;;;24.30;99.90;;;;;;4904820;29;20084;-86
2022/08/14 10:54:38;;;;;;;16.75;4.50;;;24.50;99.90;;;;;;4905107;29;20028;-86
2022/08/14 10:57:14;;;;;;;16.65;4.38;;;24.80;99.90;;;;;;4905631;29;20028;-88
2022/08/14 11:00:14;;;;;;;17.65;4.55;;;24.70;99.90;;;;;;4901291;29;20266;-87
2022/08/14 11:02:41;;;;;;;15.45;4.25;;;24.70;99.90;;;;;;4895025;29;20031;-87
2022/08/14 11:05:06;;;;;;;17.05;4.18;;;24.50;99.90;;;;;;4879327;29;20036;-87
2022/08/14 11:07:35;;;;;;;18.77;4.18;;;24.30;99.90;;;;;;4896401;29;20088;-87
2022/08/14 11:10:09;;;;;;;20.90;4.55;;;24.00;99.90;;;;;;4880230;29;20096;-88
2022/08/14 11:12:48;;;;;;;16.10;4.55;;;24.00;99.90;;;;;;4895750;29;20040;-88
2022/08/14 11:15:21;;;;;;;18.70;4.70;;;24.20;99.90;;;;;;4895553;29;20064;-88
2022/08/14 11:17:49;;;;;;;13.70;4.68;;;24.30;99.90;;;;;;4895623;29;20032;-88
2022/08/14 11:20:17;;;;;;;15.23;5.82;;;24.00;99.90;;;;;;4896984;29;20561;-92
2022/08/14 11:22:45;;;;;;;17.42;6.25;;;24.40;99.90;;;;;;4894883;29;20032;-90
2022/08/14 11:25:14;;;;;;;16.23;4.68;;;24.40;99.90;;;;;;4895433;29;20052;-91
2022/08/14 11:27:42;;;;;;;11.80;3.70;;;24.30;99.90;;;;;;4879676;29;20533;-95
2022/08/14 11:30:13;;;;;;;12.45;3.70;;;24.30;99.90;;;;;;4879104;29;20485;-92
2022/08/14 11:32:49;;;;;;;16.23;4.82;;;24.20;99.90;;;;;;4896161;29;20061;-89
2022/08/14 11:35:21;;;;;;;13.20;3.72;;;24.00;99.90;;;;;;4879580;29;20025;-92
2022/08/14 11:37:51;;;;;;;13.15;4.03;;;23.80;99.90;;;;;;4896151;29;20036;-89
2022/08/14 11:40:17;;;;;;;11.85;4.03;;;23.90;99.90;;;;;;4895916;29;20040;-89
2022/08/14 11:42:47;;;;;;;10.98;4.10;;;23.90;99.90;;;;;;4896348;29;20025;-89
2022/08/14 11:45:15;;;;;;;11.63;4.13;;;24.20;99.90;;;;;;4878802;29;20084;-89
2022/08/14 11:47:41;;;;;;;13.52;4.43;;;24.50;99.90;;;;;;4895815;29;20100;-93
2022/08/14 11:50:16;;;;;;;16.58;4.13;;;24.50;99.90;;;;;;4898292;29;20028;-92
2022/08/14 11:52:46;;;;;;;14.27;4.05;;;24.20;99.90;;;;;;4883021;29;20468;-89
2022/08/14 11:55:14;;;;;;;10.00;3.53;;;24.30;99.90;;;;;;4883257;29;20028;-90
2022/08/14 11:57:42;;;;;;;10.63;3.50;;;24.60;99.90;;;;;;4901400;29;20020;-94
2022/08/14 12:00:11;;;;;;;10.48;3.40;;;24.90;99.90;;;;;;4885052;29;20021;-88
2022/08/14 12:02:48;;;;;;;12.35;4.18;;;25.00;99.90;;;;;;4905135;29;20028;-86
2022/08/14 12:05:13;;;;;;;14.98;4.00;;;25.00;99.90;;;;;;4901962;29;20085;-93
2022/08/14 12:07:49;;;;;;;14.38;3.83;;;25.10;99.90;;;;;;4901090;29;20418;-88
2022/08/14 12:10:19;;;;;;;10.88;3.33;;;25.00;99.90;;;;;;4899117;29;20025;-88
2022/08/14 12:12:45;;;;;;;10.98;3.67;;;24.90;99.90;;;;;;4881533;29;20035;-90
2022/08/14 12:15:11;;;;;;;16.30;4.32;;;25.20;99.90;;;;;;4898857;29;20111;-89
2022/08/14 12:17:47;;;;;;;13.75;3.80;;;25.60;99.90;;;;;;4899107;29;20092;-91
2022/08/14 12:20:14;;;;;;;14.10;4.30;;;25.30;99.90;;;;;;4900978;29;20037;-92
2022/08/14 12:22:45;;;;;;;14.02;3.70;;;25.30;99.90;;;;;;4883541;29;20486;-91
2022/08/14 12:25:14;;;;;;;10.13;3.47;;;25.20;99.90;;;;;;4882615;29;20049;-88
2022/08/14 12:27:51;;;;;;;18.50;3.92;;;25.00;99.90;;;;;;4898945;29;20036;-94
2022/08/14 12:30:39;;;;;;;16.17;4.38;;;25.00;99.90;;;;;;4899586;29;20059;-90
2022/08/14 12:33:21;;;;;;;14.00;4.13;;;24.60;99.90;;;;;;4898228;29;20033;-95
2022/08/14 12:35:50;;;;;;;12.77;3.47;;;24.60;99.90;;;;;;4899064;29;20024;-89
2022/08/14 12:38:18;;;;;;;11.15;3.78;;;24.60;99.90;;;;;;4882171;29;20168;-92
2022/08/14 12:40:48;;;;;;;11.98;3.60;;;24.50;99.90;;;;;;4900522;29;20037;-87
2022/08/14 12:43:17;;;;;;;10.50;3.38;;;24.60;99.90;;;;;;4897925;29;20018;-85
2022/08/14 12:45:57;;;;;;;10.32;4.20;;;24.50;99.90;;;;;;4897390;29;20040;-86
2022/08/14 12:48:24;;;;;;;13.60;3.70;;;24.60;99.90;;;;;;4880681;29;20491;-88
2022/08/14 12:50:51;;;;;;;12.65;3.95;;;24.90;99.90;;;;;;4897139;29;20056;-84
2022/08/14 12:53:17;;;;;;;13.60;3.42;;;24.90;99.90;;;;;;4897444;29;20027;-85
2022/08/14 12:55:44;;;;;;;12.07;3.60;;;24.70;99.90;;;;;;4896925;29;20112;-82
2022/08/14 12:58:11;;;;;;;13.98;3.55;;;24.60;99.90;;;;;;4897441;29;20016;-85
2022/08/14 13:00:46;;;;;;;11.85;3.85;;;24.70;99.90;;;;;;4896892;29;20044;-88
2022/08/14 13:03:25;;;;;;;11.00;3.65;;;24.60;99.90;;;;;;4898659;29;20042;-83
2022/08/14 13:05:52;;;;;;;12.93;3.13;;;24.70;99.90;;;;;;4903489;29;20029;-83
2022/08/14 13:08:20;;;;;;;13.73;3.78;;;25.20;99.90;;;;;;4904544;29;20075;-85
2022/08/14 13:10:46;;;;;;;11.90;3.28;;;25.90;99.90;;;;;;4897656;29;20028;-85
2022/08/14 13:13:18;;;;;;;13.82;4.20;;;26.20;99.90;;;;;;4898612;29;20425;-84
2022/08/14 13:15:46;;;;;;;13.82;4.15;;;25.90;99.90;;;;;;4900521;29;20021;-82
2022/08/14 13:18:16;;;;;;;13.10;3.50;;;26.00;99.90;;;;;;4896709;29;20442;-82
2022/08/14 13:20:42;;;;;;;9.57;3.45;;;26.30;99.90;;;;;;4896719;29;20036;-92
2022/08/14 13:23:09;;;;;;;15.25;3.67;;;26.80;99.90;;;;;;4897262;29;20626;-84
2022/08/14 13:25:39;;;;;;;13.23;3.70;;;26.30;99.90;;;;;;4897221;29;20079;-83
2022/08/14 13:28:06;;;;;;;12.93;3.47;;;26.20;99.90;;;;;;4896371;29;20485;-85
2022/08/14 13:30:32;;;;;;;14.45;3.58;;;26.10;99.90;;;;;;4897094;29;20029;-84
2022/08/14 13:32:59;;;;;;;10.18;3.40;;;26.40;99.90;;;;;;4896837;29;20029;-87
2022/08/14 13:35:25;;;;;;;14.00;3.88;;;26.40;99.90;;;;;;4895345;29;20035;-85
2022/08/14 13:37:52;;;;;;;14.43;3.53;;;26.60;99.90;;;;;;4896253;29;20036;-85
2022/08/14 13:40:18;;;;;;;9.63;3.10;;;27.10;99.90;;;;;;4896570;29;20508;-87
2022/08/14 13:42:47;;;;;;;16.35;3.88;;;27.10;99.90;;;;;;4896738;29;20024;-86
2022/08/14 13:45:13;;;;;;;14.02;3.53;;;27.20;99.90;;;;;;4896906;29;20024;-87
2022/08/14 13:47:40;;;;;;;11.27;3.40;;;27.10;99.90;;;;;;4896863;29;20485;-86
2022/08/14 13:50:10;;;;;;;14.57;3.97;;;27.10;99.90;;;;;;4896264;29;20037;-85
2022/08/14 13:52:43;;;;;;;9.45;3.33;;;26.30;99.90;;;;;;4896565;29;20025;-85
2022/08/14 13:55:10;;;;;;;13.18;4.03;;;26.00;99.90;;;;;;4896458;29;20024;-86
2022/08/14 13:57:40;;;;;;;14.32;4.22;;;25.80;99.90;;;;;;4896043;29;20017;-86
2022/08/14 14:00:11;;;;;;;14.27;3.80;;;25.70;99.90;;;;;;4896105;29;20131;-85
2022/08/14 14:02:41;;;;;;;14.07;4.32;;;25.60;99.90;;;;;;4896092;29;20048;-84
2022/08/14 14:05:08;;;;;;;10.60;3.85;;;25.60;99.90;;;;;;4896111;29;20044;-84
2022/08/14 14:07:35;;;;;;;13.02;3.80;;;26.30;99.90;;;;;;4895957;29;20028;-85
2022/08/14 14:10:08;;;;;;;11.35;3.67;;;26.90;99.90;;;;;;4895822;29;20064;-85
2022/08/14 14:12:36;;;;;;;11.38;3.17;;;27.90;99.90;;;;;;4895209;29;20060;-85
2022/08/14 14:15:04;;;;;;;9.00;3.25;;;28.40;99.90;;;;;;4895988;29;20605;-83
2022/08/14 14:17:30;;;;;;;12.95;3.50;;;28.10;99.90;;;;;;4895812;29;20031;-84
2022/08/14 14:19:57;;;;;;;13.00;3.28;;;27.90;99.90;;;;;;4895934;29;20132;-86
2022/08/14 14:22:26;;;;;;;7.97;3.13;;;28.30;99.90;;;;;;4895497;29;20029;-85
2022/08/14 14:24:53;;;;;;;11.02;3.10;;;29.90;98.90;;;;;;4894294;29;20585;-86
2022/08/14 14:27:19;;;;;;;8.02;2.88;;;30.20;98.20;;;;;;4895430;29;20497;-86
2022/08/14 14:29:47;;;;;;;12.70;3.20;;;30.60;97.20;;;;;;4895597;29;20031;-85
2022/08/14 14:32:16;;;;;;;10.80;3.03;;;31.10;96.10;;;;;;4895368;29;20024;-84
2022/08/14 14:34:43;;;;;;;12.38;3.20;;;30.80;96.10;;;;;;4895332;29;20053;-82
2022/08/14 14:37:14;;;;;;;14.32;4.05;;;29.90;96.90;;;;;;4895207;29;20031;-83
2022/08/14 14:39:41;;;;;;;12.48;3.63;;;30.40;96.60;;;;;;4895464;29;20029;-84
2022/08/14 14:42:10;;;;;;;12.20;3.22;;;31.00;96.10;;;;;;4896058;29;20468;-84
2022/08/14 14:45:13;;;;;;;7.97;3.10;;;32.10;94.90;;;;;;4897878;29;20111;-86
2022/08/14 14:47:42;;;;;;;7.75;3.03;;;32.10;93.80;;;;;;4900044;29;20115;-86
2022/08/14 14:50:12;;;;;;;8.82;2.50;;;33.30;93.00;;;;;;4902950;29;20029;-88
2022/08/14 14:52:39;;;;;;;9.52;2.75;;;32.30;93.40;;;;;;4919415;29;20016;-89
2022/08/14 14:55:05;;;;;;;10.55;2.92;;;31.60;93.70;;;;;;4903795;29;20025;-90
2022/08/14 14:57:31;;;;;;;10.85;3.15;;;31.80;93.50;;;;;;4897715;29;20544;-90
2022/08/14 14:59:57;;;;;;;8.63;3.13;;;32.90;92.80;;;;;;4916019;29;20032;-90
2022/08/14 15:02:33;;;;;;;14.02;3.00;;;33.20;91.70;;;;;;4921192;29;20053;-89
2022/08/14 15:04:59;;;;;;;8.75;2.95;;;32.70;92.10;;;;;;4920202;29;20040;-90
2022/08/14 15:07:28;;;;;;;13.48;3.30;;;32.30;92.60;;;;;;4917458;29;20021;-93
2022/08/14 15:09:53;;;;;;;10.45;3.30;;;31.20;93.20;;;;;;4927271;29;20033;-89
2022/08/14 15:12:19;;;;;;;10.05;3.05;;;30.30;94.00;;;;;;4914201;29;20088;-89
2022/08/14 15:14:45;;;;;;;9.98;2.90;;;29.00;95.70;;;;;;4908091;29;20032;-86
2022/08/14 15:17:11;;;;;;;10.30;3.10;;;28.20;97.10;;;;;;4898256;29;20031;-85
2022/08/14 15:19:37;;;;;;;10.20;3.50;;;27.80;98.10;;;;;;4895186;29;20029;-86
2022/08/14 15:22:02;;;;;;;10.07;3.70;;;27.80;98.30;;;;;;4897053;29;20057;-85
2022/08/14 15:24:28;;;;;;;12.55;3.90;;;27.40;99.00;;;;;;4908690;29;20075;-86
2022/08/14 15:26:57;;;;;;;12.50;4.43;;;26.90;99.80;;;;;;4917956;29;20032;-85
2022/08/14 15:29:37;;;;;;;9.95;3.42;;;26.10;99.90;;;;;;4917651;29;20492;-85
2022/08/14 15:32:04;;;;;;;15.77;4.18;;;25.80;99.90;;;;;;4900697;29;20543;-85
2022/08/14 15:34:30;;;;;;;13.88;3.92;;;25.50;99.90;;;;;;4917808;29;20553;-85
2022/08/14 15:36:55;;;;;;;14.45;3.70;;;25.30;99.90;;;;;;4917507;29;20073;-85
2022/08/14 15:39:21;;;;;;;13.55;4.20;;;25.20;99.90;;;;;;4917463;29;20043;-85
2022/08/14 15:41:47;;;;;;;10.95;3.88;;;25.00;99.90;;;;;;4917359;29;20044;-85
2022/08/14 15:44:13;;;;;;;13.13;3.33;;;25.10;99.90;;;;;;4900555;29;20024;-85
2022/08/14 15:46:39;;;;;;;10.50;3.28;;;26.00;99.90;;;;;;4917156;29;20108;-85
2022/08/14 15:49:06;;;;;;;12.23;3.78;;;26.40;99.90;;;;;;4917073;29;20025;-85
2022/08/14 15:51:33;;;;;;;8.35;2.78;;;27.90;99.90;;;;;;4917047;29;20020;-85
2022/08/14 15:53:59;;;;;;;14.57;3.63;;;29.60;98.10;;;;;;4916809;29;20028;-85
2022/08/14 15:56:24;;;;;;;14.77;3.78;;;30.80;96.10;;;;;;4917097;29;20035;-85
2022/08/14 15:58:50;;;;;;;11.48;3.35;;;30.40;95.60;;;;;;4916791;29;20501;-85
2022/08/14 16:01:19;;;;;;;8.57;2.95;;;29.90;96.50;;;;;;4917006;29;20036;-85
2022/08/14 16:03:52;;;;;;;8.57;2.70;;;29.30;97.00;;;;;;4917171;29;20024;-88
2022/08/14 16:06:19;;;;;;;11.88;3.17;;;29.80;96.80;;;;;;4918342;29;20043;-90
2022/08/14 16:08:47;;;;;;;9.80;2.78;;;31.90;94.30;;;;;;4924313;29;20049;-90
2022/08/14 16:11:14;;;;;;;8.50;2.53;;;33.40;92.70;;;;;;4920982;29;20103;-92
2022/08/14 16:13:43;;;;;;;7.88;2.95;;;34.10;91.20;;;;;;4924334;29;20039;-91
2022/08/14 16:16:30;;;;;;;10.48;3.10;;;34.30;91.00;;;;;;4901696;29;20032;-94
2022/08/14 16:18:59;;;;;;;10.77;3.05;;;31.90;92.50;;;;;;4914438;29;20100;-92
2022/08/14 16:21:29;;;;;;;8.98;2.63;;;29.40;94.60;;;;;;4923278;29;20115;-92
2022/08/14 16:23:57;;;;;;;14.77;3.30;;;28.10;96.80;;;;;;4911220;29;20040;-92
2022/08/14 16:26:25;;;;;;;12.95;3.28;;;26.80;99.20;;;;;;4910922;29;20096;-94
2022/08/14 16:28:53;;;;;;;14.10;3.53;;;26.20;99.90;;;;;;4907387;29;20709;-92
2022/08/14 16:31:21;;;;;;;9.43;2.95;;;25.50;99.90;;;;;;4910467;29;20103;-91
2022/08/14 16:33:48;;;;;;;9.27;3.03;;;26.40;99.90;;;;;;4908560;29;20024;-92
2022/08/14 16:36:27;;;;;;;8.68;3.42;;;27.00;99.90;;;;;;4902931;29;20501;-92
2022/08/14 16:38:56;;;;;;;12.05;3.47;;;27.10;99.90;;;;;;4907551;29;20032;-93
2022/08/14 16:41:28;;;;;;;12.48;3.58;;;26.90;99.90;;;;;;4905412;29;20401;-88
2022/08/14 16:44:12;;;;;;;8.68;3.00;;;26.30;99.90;;;;;;4920547;29;20035;-94
2022/08/14 16:47:12;;;;;;;12.85;3.30;;;25.80;99.90;;;;;;4910108;29;20028;-95
2022/08/14 16:49:51;;;;;;;16.27;3.85;;;25.60;99.90;;;;;;4909379;29;20039;-91
2022/08/14 16:52:17;;;;;;;17.02;3.35;;;25.30;99.90;;;;;;4902861;29;20034;-90
2022/08/14 16:54:47;;;;;;;13.38;3.85;;;24.90;99.90;;;;;;4906053;29;20039;-92
2022/08/14 16:57:22;;;;;;;12.48;3.63;;;24.60;99.90;;;;;;4903487;29;20024;-91
2022/08/14 16:59:58;;;;;;;10.05;3.50;;;24.50;99.90;;;;;;4900415;29;20401;-91
2022/08/14 17:02:41;;;;;;;8.52;3.13;;;24.50;99.90;;;;;;4917818;29;20564;-93
2022/08/14 17:05:25;;;;;;;18.40;3.83;;;24.40;99.90;;;;;;4920178;29;20028;-89
2022/08/14 17:08:03;;;;;;;15.70;4.47;;;24.20;99.90;;;;;;4917172;29;20319;-88
2022/08/14 17:10:34;;;;;;;16.38;4.43;;;24.00;99.90;;;;;;4900300;29;20040;-90
2022/08/14 17:13:19;;;;;;;12.27;3.97;;;24.00;99.90;;;;;;4917083;29;20056;-90
2022/08/14 17:16:12;;;;;;;19.73;4.85;;;23.90;99.90;;;;;;4917676;29;20036;-87
2022/08/14 17:18:59;;;;;;;14.50;4.78;;;23.80;99.90;;;;;;4916493;29;20053;-88
2022/08/14 17:21:36;;;;;;;18.88;4.45;;;23.70;99.90;;;;;;4917666;29;20492;-89
2022/08/14 17:24:09;;;;;;;9.35;4.10;;;23.70;99.90;;;;;;4919874;29;20044;-88
2022/08/14 17:26:43;;;;;;;13.85;5.35;;;23.60;99.90;;;;;;4920484;29;20024;-88
2022/08/14 17:29:08;;;;;;;12.52;4.57;;;23.60;99.90;;;;;;4899878;29;20050;-87
2022/08/14 17:31:36;;;;;;;11.52;4.70;;;23.50;99.90;;;;;;4917783;29;20500;-88
2022/08/14 17:34:02;;;;;;;11.63;4.32;;;23.50;99.90;;;;;;4915001;29;20044;-86
2022/08/14 17:36:30;;;;;;;12.48;4.68;;;23.50;99.90;;;;;;4916529;29;20020;-89
2022/08/14 17:39:13;;;;;;;16.23;5.28;;;23.30;99.90;;;;;;4915994;29;20397;-87
2022/08/14 17:42:00;;;;;;;14.85;5.07;;;23.30;99.90;;;;;;4898733;29;20139;-87
2022/08/14 17:44:28;;;;;;;12.32;4.90;;;23.20;99.90;;;;;;4917666;29;20046;-87
2022/08/14 17:46:58;;;;;;;16.20;5.18;;;23.20;99.90;;;;;;4917980;29;20197;-83
2022/08/14 17:49:28;;;;;;;14.88;6.07;;;23.10;99.90;;;;;;4917736;29;20039;-84
2022/08/14 17:52:01;;;;;;;15.30;6.15;;;23.00;99.90;;;;;;4918688;29;20080;-83
2022/08/14 17:54:28;;;;;;;15.67;6.30;;;22.70;99.90;;;;;;4921652;29;20034;-84
2022/08/14 17:56:59;;;;;;;19.58;7.10;;;22.50;99.90;;;;;;4922812;29;20039;-84
2022/08/14 17:59:27;;;;;;;19.00;6.97;;;22.20;99.90;;;;;;4924464;29;20068;-89
2022/08/14 18:01:53;;;;;;;16.58;8.38;;;22.00;99.90;;;;;;4925032;29;20032;-88
2022/08/14 18:04:21;;;;;;;17.35;9.13;;;21.80;99.90;;;;;;4927995;29;20024;-87
2022/08/14 18:06:48;;;;;;;20.30;8.90;;;21.60;99.90;;;;;;4926764;29;20023;-85
2022/08/14 18:09:13;;;;;;;25.92;9.88;;;21.50;99.90;;;;;;4926331;29;20024;-86
2022/08/14 18:11:39;;;;;;;22.67;8.90;;;21.60;99.90;;;;;;4926377;29;20211;-87
2022/08/14 18:14:07;;;;;;;22.05;9.70;;;21.70;99.90;;;;;;4925267;29;20027;-86
2022/08/14 18:16:34;;;;;;;22.08;8.90;;;21.80;99.90;;;;;;4925644;29;20028;-84
2022/08/14 18:19:01;;;;;;;22.65;9.20;;;21.80;99.90;;;;;;4924151;29;20024;-85
2022/08/14 18:21:28;;;;;;;22.40;8.80;;;21.90;99.90;;;;;;4924705;29;20055;-84
2022/08/14 18:23:54;;;;;;;20.33;8.95;;;21.90;99.90;;;;;;4924073;29;20044;-84
2022/08/14 18:26:28;;;;;;;22.02;8.75;;;21.90;99.90;;;;;;4924605;29;20359;-84
2022/08/14 18:28:55;;;;;;;23.42;8.93;;;21.80;99.90;;;;;;4919452;29;20024;-85
2022/08/14 18:31:21;;;;;;;20.83;7.97;;;21.80;99.90;;;;;;4921822;29;20028;-84
2022/08/14 18:33:58;;;;;;;28.52;9.15;;;21.80;99.90;;;;;;4919010;29;20036;-83
2022/08/14 18:36:44;;;;;;;30.25;8.63;;;21.70;99.90;;;;;;4914949;29;20380;-83
2022/08/14 18:39:34;;;;;;;21.52;9.02;;;21.70;99.90;;;;;;4915476;29;20067;-83
2022/08/14 18:42:11;;;;;;;27.73;9.60;;;21.70;99.90;;;;;;4915220;29;20043;-83
2022/08/14 18:44:49;;;;;;;22.95;9.13;;;21.70;99.90;;;;;;4918077;29;20036;-83
2022/08/14 18:47:17;;;;;;;23.05;9.45;;;21.60;99.90;;;;;;4922746;29;20028;-83
2022/08/14 18:49:52;;;;;;;23.10;9.13;;;21.60;99.90;;;;;;4918852;29;20091;-84
2022/08/14 18:52:34;;;;;;;18.25;10.30;;;21.60;99.90;;;;;;4901142;29;20248;-83
2022/08/14 18:55:17;;;;;;;34.40;9.77;;;21.60;99.90;;;;;;4923901;29;20028;-84
2022/08/14 18:58:03;;;;;;;17.38;8.98;;;21.60;99.90;;;;;;4907416;29;20309;-84
2022/08/14 19:00:38;;;;;;;20.73;9.30;;;21.60;99.90;;;;;;4927909;29;20072;-83
2022/08/14 19:03:33;;;;;;;17.20;8.02;;;21.60;99.90;;;;;;4928701;29;20032;-83
2022/08/14 19:06:04;;;;;;;16.42;8.23;;;21.70;99.90;;;;;;4928229;29;20028;-83
2022/08/14 19:08:37;;;;;;;15.38;8.30;;;21.60;99.90;;;;;;4928778;29;20173;-83
2022/08/14 19:11:06;;;;;;;19.17;8.82;;;21.60;99.90;;;;;;4928366;29;20032;-83
2022/08/14 19:13:39;;;;;;;19.73;9.05;;;21.60;99.90;;;;;;4928925;29;20012;-83
2022/08/14 19:16:08;;;;;;;19.13;9.65;;;21.60;99.90;;;;;;4927696;29;20020;-84
2022/08/14 19:18:46;;;;;;;21.38;9.35;;;21.60;99.90;;;;;;4928266;29;20051;-84
2022/08/14 19:21:38;;;;;;;23.00;10.35;;;21.60;99.90;;;;;;4928176;29;20335;-84
2022/08/14 19:24:21;;;;;;;21.58;9.18;;;21.60;99.90;;;;;;4928246;29;20040;-84
2022/08/14 19:26:50;;;;;;;19.23;8.75;;;21.50;99.90;;;;;;4928218;29;20024;-83
2022/08/14 19:29:42;;;;;;;20.67;8.90;;;21.60;99.90;;;;;;4927829;29;20040;-85
2022/08/14 19:32:30;;;;;;;24.95;9.25;;;21.50;99.90;;;;;;4926489;29;20230;-84
2022/08/14 19:35:02;;;;;;;26.98;9.50;;;21.60;99.90;;;;;;4927124;29;20047;-85
2022/08/14 19:37:53;;;;;;;21.63;10.07;;;21.60;99.90;;;;;;4910921;29;20339;-84
2022/08/14 19:40:30;;;;;;;17.02;8.77;;;21.50;99.90;;;;;;4927364;29;20032;-84
2022/08/14 19:42:57;;;;;;;20.45;9.13;;;21.50;99.90;;;;;;4928076;29;20239;-84
2022/08/14 19:45:25;;;;;;;20.77;8.73;;;21.60;99.90;;;;;;4927446;29;20048;-85
2022/08/14 19:47:52;;;;;;;20.00;8.80;;;21.50;99.90;;;;;;4928674;29;20401;-88
2022/08/14 19:50:31;;;;;;;23.38;9.05;;;21.50;99.90;;;;;;4928111;29;20020;-87
2022/08/14 19:53:15;;;;;;;25.25;9.70;;;21.40;99.90;;;;;;4928314;29;20027;-90
2022/08/14 19:55:41;;;;;;;21.48;10.05;;;21.40;99.90;;;;;;4927295;29;20016;-88
2022/08/14 19:58:08;;;;;;;24.42;9.82;;;21.30;99.90;;;;;;4927135;29;20227;-87
2022/08/14 20:00:34;;;;;;;24.08;10.65;;;21.30;99.90;;;;;;4926412;29;20032;-86
2022/08/14 20:03:06;;;;;;;26.33;10.30;;;21.30;99.90;;;;;;4927696;29;20319;-87
2022/08/14 20:05:33;;;;;;;25.83;10.38;;;21.30;99.90;;;;;;4927777;29;20084;-87
2022/08/14 20:08:01;;;;;;;23.30;10.13;;;21.20;99.90;;;;;;4912337;29;20308;-87
2022/08/14 20:10:33;;;;;;;23.38;9.52;;;21.20;99.90;;;;;;4920590;29;20042;-88
2022/08/14 20:13:04;;;;;;;21.88;9.05;;;21.20;99.90;;;;;;4902026;29;20059;-87
2022/08/14 20:15:33;;;;;;;20.98;8.95;;;21.30;99.90;;;;;;4921244;29;20048;-87
2022/08/14 20:18:08;;;;;;;20.27;9.77;;;21.20;99.90;;;;;;4920841;29;20046;-88
2022/08/14 20:20:38;;;;;;;24.08;9.30;;;21.20;99.90;;;;;;4921756;29;20036;-89
2022/08/14 20:23:16;;;;;;;28.65;9.30;;;21.20;99.90;;;;;;4918184;29;20087;-87
2022/08/14 20:25:45;;;;;;;21.33;9.57;;;21.20;99.90;;;;;;4926270;29;20270;-88
2022/08/14 20:28:24;;;;;;;25.83;9.60;;;21.20;99.90;;;;;;4919270;29;20028;-87
2022/08/14 20:31:14;;;;;;;23.20;9.98;;;21.20;99.90;;;;;;4918433;29;20544;-87
2022/08/14 20:34:10;;;;;;;23.23;10.88;;;21.10;99.90;;;;;;4918335;29;20020;-88
2022/08/14 20:36:39;;;;;;;23.80;10.63;;;21.10;99.90;;;;;;4903828;29;20035;-89
2022/08/14 20:39:11;;;;;;;25.63;11.50;;;21.00;99.90;;;;;;4922313;29;20020;-88
2022/08/14 20:41:44;;;;;;;23.90;11.10;;;21.10;99.90;;;;;;4903342;29;20063;-88
2022/08/14 20:47:02;;;;;;;19.92;11.18;;;21.10;99.90;;;;;;4925441;29;20091;-88
2022/08/14 20:49:35;;;;;;;22.38;12.13;;;21.10;99.90;;;;;;4910036;29;20024;-87
2022/08/14 20:52:08;;;;;;;26.77;12.50;;;21.20;99.90;;;;;;4923718;29;20050;-88
2022/08/14 20:54:34;;;;;;;24.33;11.50;;;21.10;99.90;;;;;;4920257;29;20157;-87
2022/08/14 20:57:09;;;;;;;25.85;11.27;;;21.10;99.90;;;;;;4919808;29;20092;-89
2022/08/14 20:59:54;;;;;;;;;;;21.10;99.90;;;;;;4920309;29;20032;-87
2022/08/14 21:02:28;;;;;;;24.48;10.00;;;21.10;99.90;;;;;;4924938;29;19918;-91
2022/08/14 21:05:02;;;;;;;;;;;21.20;99.90;;;;;;4908982;29;20332;-89
2022/08/14 21:07:29;;;;;;;28.23;10.60;;;21.20;99.90;;;;;;4919412;29;20009;-89
2022/08/14 21:10:07;;;;;;;25.70;10.05;;;21.20;99.90;;;;;;4898324;29;20033;-90
2022/08/14 21:12:32;;;;;;;22.00;9.88;;;21.20;99.90;;;;;;4898564;29;20512;-89
2022/08/14 21:14:58;;;;;;;25.70;9.27;;;21.20;99.90;;;;;;4898686;29;20059;-89
2022/08/14 21:17:24;;;;;;;27.88;9.80;;;21.20;99.90;;;;;;4916021;29;20155;-89
2022/08/14 21:19:50;;;;;;;20.23;9.52;;;21.20;99.90;;;;;;4915338;29;20055;-91
2022/08/14 21:22:16;;;;;;;19.60;10.05;;;21.20;99.90;;;;;;4914901;29;20068;-88
2022/08/14 21:24:43;;;;;;;18.17;8.98;;;21.10;99.90;;;;;;4915139;29;20189;-89
2022/08/14 21:27:11;;;;;;;18.02;9.35;;;21.10;99.90;;;;;;4898310;29;20424;-90
2022/08/14 21:29:42;;;;;;;22.83;9.00;;;21.10;99.90;;;;;;4915214;29;20028;-89
2022/08/14 21:32:08;;;;;;;25.60;9.70;;;21.20;99.90;;;;;;4915109;29;20063;-89
2022/08/14 21:34:36;;;;;;;30.35;10.63;;;21.20;99.90;;;;;;4915027;29;20028;-89
2022/08/14 21:37:03;;;;;;;25.45;9.23;;;21.30;99.90;;;;;;4914927;29;20253;-89
2022/08/14 21:39:29;;;;;;;17.40;9.32;;;21.30;99.90;;;;;;4915017;29;20032;-89
2022/08/14 21:41:56;;;;;;;26.77;9.75;;;21.30;99.90;;;;;;4914770;29;20040;-90
2022/08/14 21:44:22;;;;;;;22.17;9.02;;;21.20;99.90;;;;;;4914969;29;20020;-89
2022/08/14 21:46:54;;;;;;;22.17;9.38;;;21.20;99.90;;;;;;4914823;29;20115;-89
2022/08/14 21:49:29;;;;;;;22.90;9.95;;;21.30;99.90;;;;;;4909963;29;20016;-89
2022/08/14 21:52:03;;;;;;;24.17;9.65;;;21.30;99.90;;;;;;4936568;29;20086;-89
2022/08/14 21:54:34;;;;;;;22.27;10.15;;;21.20;99.90;;;;;;4906114;29;20017;-89
2022/08/14 21:57:01;;;;;;;24.33;9.45;;;21.20;99.90;;;;;;4914799;29;20115;-89
2022/08/14 21:59:29;;;;;;;17.90;9.00;;;21.30;99.90;;;;;;4915003;29;20028;-89
2022/08/14 22:01:57;;;;;;;18.05;9.48;;;21.30;99.90;;;;;;4914973;29;20040;-89
2022/08/14 22:04:24;;;;;;;24.15;9.40;;;21.30;99.90;;;;;;4914563;29;20223;-90
2022/08/14 22:06:51;;;;;;;25.17;10.65;;;21.20;99.90;;;;;;4914337;29;20485;-89
2022/08/14 22:09:19;;;;;;;20.55;9.55;;;21.20;99.90;;;;;;4914632;29;20028;-90
2022/08/14 22:11:45;;;;;;;25.00;9.80;;;21.20;99.90;;;;;;4914299;29;20036;-89
2022/08/14 22:14:11;;;;;;;20.27;10.32;;;21.20;99.90;;;;;;4914154;29;20106;-88
2022/08/14 22:16:39;;;;;;;25.80;11.07;;;21.20;99.90;;;;;;4914258;29;20540;-88
2022/08/14 22:19:10;;;;;;;21.63;9.70;;;21.20;99.90;;;;;;4914432;29;20024;-88
2022/08/14 22:21:37;;;;;;;30.77;10.73;;;21.30;99.90;;;;;;4914279;29;20276;-89
2022/08/14 22:24:03;;;;;;;24.88;10.73;;;21.30;99.90;;;;;;4913806;29;20052;-89
2022/08/14 22:26:29;;;;;;;24.67;10.63;;;21.20;99.90;;;;;;4914514;29;20032;-89
2022/08/14 22:28:55;;;;;;;25.40;10.23;;;21.20;99.90;;;;;;4914450;29;20024;-89
2022/08/14 22:31:22;;;;;;;25.83;10.63;;;21.20;99.90;;;;;;4914496;29;20038;-89
2022/08/14 22:33:51;;;;;;;24.08;10.10;;;21.20;99.90;;;;;;4913430;29;20020;-89
2022/08/14 22:39:03;;;;;;;25.98;9.52;;;21.30;99.90;;;;;;4914904;29;20051;-88
2022/08/14 22:41:30;;;;;;;33.78;10.85;;;21.30;99.90;;;;;;4914295;29;20036;-89
2022/08/14 22:44:02;;;;;;;25.13;9.68;;;21.20;99.90;;;;;;4897463;29;20374;-88
2022/08/14 22:46:28;;;;;;;24.58;9.45;;;21.10;99.90;;;;;;4897152;29;20095;-89
2022/08/14 22:48:53;;;;;;;27.05;10.30;;;21.10;99.90;;;;;;4913856;29;20028;-90
2022/08/14 22:51:22;;;;;;;30.33;10.18;;;21.10;99.90;;;;;;4913985;29;20028;-88
2022/08/14 22:53:50;;;;;;;27.70;10.48;;;21.10;99.90;;;;;;4913774;29;20492;-88
2022/08/14 22:56:16;;;;;;;29.90;10.15;;;21.10;99.90;;;;;;4914440;29;20024;-87
2022/08/14 22:58:42;;;;;;;32.63;10.77;;;21.10;99.90;;;;;;4915171;29;20047;-88
2022/08/14 23:01:15;;;;;;;33.90;10.85;;;21.20;99.90;;;;;;4913007;29;20520;-89
2022/08/14 23:03:41;;;;;;;36.10;10.10;;;21.10;99.90;;;;;;4914160;29;20040;-88
2022/08/14 23:06:08;;;;;;;29.70;10.02;;;21.10;99.90;;;;;;4913855;29;20040;-88
2022/08/14 23:08:34;;;;;;;32.55;10.50;;;21.10;99.90;;;;;;4913901;29;20032;-88
2022/08/14 23:11:02;;;;;;;33.00;10.82;;;21.10;99.90;;;;;;4896785;29;20444;-88
2022/08/14 23:13:28;;;;;;;24.10;10.02;;;21.10;99.90;;;;;;4896650;29;20064;-88
2022/08/14 23:15:54;;;;;;;23.98;9.48;;;21.20;99.90;;;;;;4896753;29;20107;-88
2022/08/14 23:18:22;;;;;;;36.13;10.82;;;21.20;99.90;;;;;;4913828;29;20055;-90
2022/08/14 23:20:48;;;;;;;29.25;9.82;;;21.10;99.90;;;;;;4913694;29;20528;-89
2022/08/14 23:23:16;;;;;;;39.50;10.55;;;21.10;99.90;;;;;;4896943;29;20035;-88